Time;durP1;ratioP1;P1;durP2;ratioP2;P2;SDS_P1;SDS_P2;PMS_P1;PMS_P2;Temp;Humidity;BMP_temperature;BMP_pressure;BME280_temperature;BME280_humidity;BME280_pressure;Samples;Min_cycle;Max_cycle;Signal;HPM_P1;HPM_P2
2022/02/23 00:00:53;;;;;;;6.28;2.35;;;;;;;24.41;14.37;98052.28;5072732;28;20060;-74
2022/02/23 00:03:19;;;;;;;6.88;2.47;;;;;;;24.55;14.45;98051.16;5084250;28;20032;-75
2022/02/23 00:05:45;;;;;;;7.95;2.67;;;;;;;24.70;14.14;98044.75;5076517;28;20028;-74
2022/02/23 00:08:11;;;;;;;6.55;3.15;;;;;;;24.69;14.19;98031.94;5085895;28;20080;-75
2022/02/23 00:10:37;;;;;;;6.13;2.47;;;;;;;24.27;14.55;98038.56;5058202;28;20052;-75
2022/02/23 00:13:03;;;;;;;8.43;2.60;;;;;;;24.37;14.46;98031.13;5072726;28;20174;-75
2022/02/23 00:15:29;;;;;;;9.43;3.65;;;;;;;24.57;14.43;98026.25;5053442;28;20035;-75
2022/02/23 00:17:56;;;;;;;9.10;3.33;;;;;;;24.36;14.48;98026.78;5068321;28;20041;-75
2022/02/23 00:20:22;;;;;;;9.95;3.78;;;;;;;24.46;14.48;98015.28;5070412;28;20028;-75
2022/02/23 00:22:48;;;;;;;6.90;2.60;;;;;;;24.43;14.25;98013.34;5075564;28;20109;-75
2022/02/23 00:25:16;;;;;;;5.38;2.15;;;;;;;24.56;14.31;98016.25;5067904;28;20104;-75
2022/02/23 00:27:42;;;;;;;4.50;1.67;;;;;;;24.54;14.15;98013.09;5071162;28;20413;-75
2022/02/23 00:30:09;;;;;;;5.10;1.70;;;;;;;24.54;14.21;98013.09;5069643;28;20047;-74
2022/02/23 00:32:35;;;;;;;3.80;1.73;;;;;;;24.57;13.97;98007.41;5052378;28;20078;-75
2022/02/23 00:35:01;;;;;;;9.63;2.38;;;;;;;24.59;14.08;98001.34;5076186;28;20028;-75
2022/02/23 00:37:27;;;;;;;5.13;2.00;;;;;;;24.88;13.74;97990.19;5071623;28;20093;-75
2022/02/23 00:39:53;;;;;;;9.18;3.20;;;;;;;25.13;13.65;97984.69;5072490;28;20033;-74
2022/02/23 00:42:19;;;;;;;6.50;2.67;;;;;;;25.28;13.54;97981.03;5070547;28;20730;-75
2022/02/23 00:44:45;;;;;;;9.27;3.38;;;;;;;25.05;13.78;97970.03;5074534;28;20563;-75
2022/02/23 00:47:11;;;;;;;4.95;2.30;;;;;;;25.17;13.47;97971.31;5073882;28;20064;-75
2022/02/23 00:49:38;;;;;;;2.63;1.10;;;;;;;24.82;13.76;97966.66;5069972;28;20032;-75
2022/02/23 00:52:08;;;;;;;4.60;1.42;;;;;;;24.57;13.88;97968.09;5071687;28;20439;-74
2022/02/23 00:54:35;;;;;;;4.72;1.70;;;;;;;24.46;13.82;97956.31;5072860;28;20028;-74
2022/02/23 00:57:02;;;;;;;5.63;1.70;;;;;;;24.46;14.01;97950.72;5075430;28;20024;-75
2022/02/23 00:59:28;;;;;;;3.65;1.38;;;;;;;24.44;14.05;97950.38;5067508;28;20032;-75
2022/02/23 01:01:55;;;;;;;7.70;1.42;;;;;;;24.46;13.94;97947.13;5074722;28;20384;-74
2022/02/23 01:04:21;;;;;;;5.70;1.73;;;;;;;24.55;13.96;97945.25;5068862;28;20032;-74
2022/02/23 01:06:47;;;;;;;3.00;1.23;;;;;;;24.60;13.85;97949.56;5071021;28;20115;-75
2022/02/23 01:09:13;;;;;;;3.45;1.45;;;;;;;24.45;13.90;97951.97;5071951;28;20133;-75
2022/02/23 01:11:40;;;;;;;3.13;1.08;;;;;;;24.02;14.21;97952.19;5071057;28;20031;-75
2022/02/23 01:14:07;;;;;;;3.40;1.55;;;;;;;24.39;14.01;97950.91;5052531;28;20032;-75
2022/02/23 01:16:33;;;;;;;4.72;1.50;;;;;;;24.65;13.78;97946.22;5074057;28;22001;-74
2022/02/23 01:18:59;;;;;;;5.50;1.42;;;;;;;24.68;13.96;97951.75;5068536;28;20501;-74
2022/02/23 01:21:26;;;;;;;3.33;0.80;;;;;;;24.61;13.84;97937.09;5071373;28;20071;-74
2022/02/23 01:23:52;;;;;;;3.58;1.33;;;;;;;24.43;13.89;97940.38;5074268;28;20043;-74
2022/02/23 01:26:18;;;;;;;5.85;1.33;;;;;;;24.50;14.00;97933.81;5070551;28;20098;-75
2022/02/23 01:28:44;;;;;;;3.47;1.23;;;;;;;24.70;13.84;97937.25;5050006;28;20838;-75
2022/02/23 01:31:11;;;;;;;3.15;1.10;;;;;;;24.88;13.48;97934.78;5070724;28;20032;-75
2022/02/23 01:33:37;;;;;;;3.30;1.27;;;;;;;25.05;13.64;97930.72;5077571;28;20521;-75
2022/02/23 01:36:03;;;;;;;4.38;1.30;;;;;;;25.18;13.33;97923.09;5070837;28;20029;-74
2022/02/23 01:38:29;;;;;;;3.42;1.20;;;;;;;24.99;13.57;97921.25;5074329;28;20044;-75
2022/02/23 01:40:56;;;;;;;5.10;1.35;;;;;;;25.01;13.51;97915.97;5074438;28;20486;-76
2022/02/23 01:43:22;;;;;;;5.70;1.08;;;;;;;25.07;13.41;97911.38;5070027;28;20370;-76
2022/02/23 01:45:49;;;;;;;4.47;1.48;;;;;;;24.89;13.42;97899.06;5076322;28;20085;-76
2022/02/23 01:48:15;;;;;;;3.33;0.93;;;;;;;25.09;13.53;97894.88;5066654;28;20032;-76
2022/02/23 01:50:42;;;;;;;2.10;1.10;;;;;;;25.21;13.42;97890.50;5067334;28;20371;-76
2022/02/23 01:53:08;;;;;;;4.43;1.00;;;;;;;25.20;13.38;97889.75;5073360;28;20029;-75
2022/02/23 01:55:38;;;;;;;4.68;1.13;;;;;;;25.16;13.48;97891.06;5071501;28;20052;-75
2022/02/23 01:58:07;;;;;;;2.33;0.80;;;;;;;25.18;13.40;97886.56;5066418;28;20032;-76
2022/02/23 02:00:33;;;;;;;3.13;1.00;;;;;;;25.30;13.21;97882.22;5070446;28;20025;-75
2022/02/23 02:02:59;;;;;;;4.20;1.08;;;;;;;25.25;13.49;97894.78;5068256;28;20028;-76
2022/02/23 02:05:25;;;;;;;3.50;1.00;;;;;;;25.09;13.37;97892.06;5075042;28;20032;-76
2022/02/23 02:07:51;;;;;;;4.38;0.95;;;;;;;24.86;13.74;97877.47;5070150;28;20036;-76
2022/02/23 02:10:17;;;;;;;2.58;0.95;;;;;;;24.71;13.87;97885.50;5073050;28;20032;-76
2022/02/23 02:12:43;;;;;;;2.40;0.73;;;;;;;24.81;13.86;97883.66;5070440;28;20097;-76
2022/02/23 02:15:10;;;;;;;3.13;0.90;;;;;;;24.79;13.81;97877.69;5075529;28;20036;-75
2022/02/23 02:17:36;;;;;;;2.70;0.85;;;;;;;24.75;13.94;97877.78;5074955;28;20032;-75
2022/02/23 02:20:05;;;;;;;3.42;0.70;;;;;;;24.86;14.03;97875.47;5070440;28;20029;-75
2022/02/23 02:22:32;;;;;;;3.58;1.13;;;;;;;24.77;13.69;97874.53;5074073;28;20033;-75
2022/02/23 02:25:01;;;;;;;11.32;2.67;;;;;;;24.31;14.24;97879.38;5073050;28;20090;-75
2022/02/23 02:27:28;;;;;;;7.10;1.20;;;;;;;24.30;14.22;97872.16;5069492;28;20055;-75
2022/02/23 02:29:54;;;;;;;1.95;0.90;;;;;;;24.37;14.33;97874.00;5070651;28;20052;-76
2022/02/23 02:32:20;;;;;;;4.28;1.00;;;;;;;24.70;13.93;97861.47;5056647;28;20040;-76
2022/02/23 02:34:47;;;;;;;3.88;1.15;;;;;;;24.59;13.95;97853.34;5075593;28;20528;-76
2022/02/23 02:37:14;;;;;;;2.67;0.93;;;;;;;24.88;13.84;97856.16;5074669;28;20036;-75
2022/02/23 02:39:40;;;;;;;2.03;0.95;;;;;;;24.77;13.91;97850.06;5078309;28;20501;-76
2022/02/23 02:42:07;;;;;;;4.05;1.05;;;;;;;24.35;14.29;97843.56;5073315;28;20412;-76
2022/02/23 02:44:34;;;;;;;2.55;0.90;;;;;;;24.18;14.38;97844.06;5068628;28;20531;-75
2022/02/23 02:47:00;;;;;;;3.65;1.00;;;;;;;24.05;14.20;97847.53;5072886;28;20052;-76
2022/02/23 02:49:27;;;;;;;5.30;1.05;;;;;;;23.71;14.52;97844.38;5070000;28;20097;-76
2022/02/23 02:51:53;;;;;;;3.20;0.75;;;;;;;23.40;14.79;97839.53;5073240;28;20146;-76
2022/02/23 02:54:19;;;;;;;3.47;1.30;;;;;;;23.44;14.84;97835.41;5074596;28;20567;-75
2022/02/23 02:56:46;;;;;;;3.45;0.90;;;;;;;23.57;14.77;97832.72;5061496;28;20397;-75
2022/02/23 02:59:12;;;;;;;6.95;1.10;;;;;;;23.95;14.36;97851.38;5074060;28;20036;-76
2022/02/23 03:01:39;;;;;;;4.85;1.35;;;;;;;22.80;15.42;97846.41;5069625;28;20055;-76
2022/02/23 03:04:06;;;;;;;6.97;1.52;;;;;;;22.79;15.43;97850.41;5073697;28;20036;-76
2022/02/23 03:06:33;;;;;;;3.28;1.10;;;;;;;22.49;15.84;97843.00;5073688;28;20037;-76
2022/02/23 03:08:59;;;;;;;6.18;0.80;;;;;;;22.56;15.64;97851.25;5073789;28;20086;-76
2022/02/23 03:11:26;;;;;;;4.97;1.15;;;;;;;23.15;15.36;97849.22;5078396;28;20100;-76
2022/02/23 03:13:52;;;;;;;4.18;0.90;;;;;;;22.92;15.48;97846.53;5076416;28;20103;-76
2022/02/23 03:16:19;;;;;;;4.15;1.10;;;;;;;23.36;15.14;97854.41;5073745;28;20032;-76
2022/02/23 03:18:45;;;;;;;4.60;0.95;;;;;;;22.79;15.94;97862.41;5076476;28;20402;-75
2022/02/23 03:21:12;;;;;;;7.25;0.95;;;;;;;23.52;15.26;97864.06;5071712;28;20102;-76
2022/02/23 03:23:39;;;;;;;2.53;0.80;;;;;;;23.02;15.66;97864.34;5071577;28;20090;-76
2022/02/23 03:26:08;;;;;;;3.67;0.90;;;;;;;23.65;15.22;97867.75;5075339;28;20111;-76
2022/02/23 03:28:35;;;;;;;6.82;0.82;;;;;;;23.76;15.05;97863.47;5078652;28;20032;-76
2022/02/23 03:31:01;;;;;;;4.28;1.10;;;;;;;23.62;15.37;97858.19;5075484;28;20389;-76
2022/02/23 03:33:27;;;;;;;3.33;0.60;;;;;;;24.19;15.21;97862.44;5073884;28;20608;-76
2022/02/23 03:35:53;;;;;;;2.00;0.73;;;;;;;24.27;14.95;97853.41;5070379;28;20397;-76
2022/02/23 03:38:19;;;;;;;1.13;0.60;;;;;;;24.07;15.09;97846.31;5068534;28;20124;-76
2022/02/23 03:40:45;;;;;;;1.90;0.77;;;;;;;24.31;15.01;97837.28;5071334;28;20032;-76
2022/02/23 03:43:16;;;;;;;2.47;0.90;;;;;;;24.11;15.34;97845.00;5072691;28;20052;-76
2022/02/23 03:45:43;;;;;;;2.47;0.70;;;;;;;24.01;15.34;97843.25;5073554;28;20036;-76
2022/02/23 03:48:09;;;;;;;2.10;0.70;;;;;;;23.95;15.42;97844.97;5073215;28;20122;-76
2022/02/23 03:50:35;;;;;;;6.15;0.90;;;;;;;24.11;15.50;97852.66;5072838;28;20028;-76
2022/02/23 03:53:01;;;;;;;1.40;0.50;;;;;;;24.64;15.08;97844.34;5077090;28;20036;-76
2022/02/23 03:55:29;;;;;;;2.00;0.60;;;;;;;24.89;14.78;97831.66;5052165;28;20033;-75
2022/02/23 03:57:55;;;;;;;4.47;0.65;;;;;;;24.77;14.98;97835.22;5072503;28;20036;-76
2022/02/23 04:00:21;;;;;;;6.20;0.90;;;;;;;24.74;15.19;97836.88;5068710;28;20037;-75
2022/02/23 04:02:47;;;;;;;1.15;0.60;;;;;;;25.03;14.90;97843.28;5074769;28;20068;-76
2022/02/23 04:05:13;;;;;;;2.05;0.40;;;;;;;24.95;14.90;97846.75;5073451;28;20090;-75
2022/02/23 04:07:39;;;;;;;3.30;0.70;;;;;;;24.84;15.47;97838.63;5073239;28;20033;-76
2022/02/23 04:10:07;;;;;;;1.20;0.43;;;;;;;24.85;15.40;97843.03;5075988;28;20119;-76
2022/02/23 04:12:33;;;;;;;1.63;0.80;;;;;;;25.13;15.10;97839.38;5076335;28;20032;-76
2022/02/23 04:14:59;;;;;;;1.60;0.50;;;;;;;25.32;14.87;97838.38;5073134;28;20033;-76
2022/02/23 04:17:26;;;;;;;2.00;0.70;;;;;;;25.50;14.79;97842.69;5072170;28;20040;-76
2022/02/23 04:19:52;;;;;;;2.17;0.77;;;;;;;25.43;15.08;97846.50;5078007;28;20089;-76
2022/02/23 04:22:18;;;;;;;4.07;0.68;;;;;;;25.09;15.37;97852.72;5074876;28;20493;-76
2022/02/23 04:24:44;;;;;;;3.30;0.98;;;;;;;24.61;16.05;97853.69;5071586;28;20036;-76
2022/02/23 04:27:10;;;;;;;3.63;1.38;;;;;;;23.80;16.76;97866.22;5073593;28;20339;-76
2022/02/23 04:29:36;;;;;;;4.22;0.90;;;;;;;23.60;17.31;97871.88;5071834;28;20293;-76
2022/02/23 04:32:03;;;;;;;2.88;0.77;;;;;;;24.25;17.07;97878.31;5071526;28;20032;-76
2022/02/23 04:34:29;;;;;;;4.13;0.70;;;;;;;24.34;17.01;97881.25;5069944;28;20040;-76
2022/02/23 04:36:55;;;;;;;2.65;1.00;;;;;;;23.94;17.80;97891.09;5071683;28;20033;-76
2022/02/23 04:39:21;;;;;;;3.30;0.70;;;;;;;24.60;17.20;97885.78;5071735;28;20501;-76
2022/02/23 04:41:47;;;;;;;1.95;0.77;;;;;;;24.12;17.71;97896.28;5069258;28;20037;-76
2022/02/23 04:44:13;;;;;;;2.80;0.70;;;;;;;24.32;17.85;97892.16;5069712;28;20068;-76
2022/02/23 04:46:39;;;;;;;1.02;0.70;;;;;;;23.52;18.41;97897.69;5072881;28;20485;-76
2022/02/23 04:49:05;;;;;;;1.60;0.75;;;;;;;24.01;18.41;97902.16;5068253;28;20025;-76
2022/02/23 04:51:31;;;;;;;2.05;0.85;;;;;;;23.92;18.60;97901.97;5072817;28;20090;-76
2022/02/23 04:53:58;;;;;;;0.93;0.60;;;;;;;23.78;18.77;97897.47;5070579;28;20045;-76
2022/02/23 04:56:24;;;;;;;2.88;0.70;;;;;;;23.79;19.18;97910.25;5083284;28;20028;-76
2022/02/23 04:58:51;;;;;;;4.65;0.85;;;;;;;23.88;18.83;97902.03;5072391;28;20486;-76
2022/02/23 05:01:17;;;;;;;2.47;0.65;;;;;;;23.73;19.68;97900.81;5070830;28;20043;-76
2022/02/23 05:03:44;;;;;;;1.90;0.70;;;;;;;23.29;20.12;97910.56;5069842;28;20036;-76
2022/02/23 05:06:10;;;;;;;2.25;0.80;;;;;;;23.68;19.90;97915.34;5071316;28;20119;-75
2022/02/23 05:08:37;;;;;;;1.98;0.80;;;;;;;23.60;19.94;97916.72;5077414;28;20119;-76
2022/02/23 05:11:03;;;;;;;1.92;0.90;;;;;;;24.13;19.36;97921.13;5073150;28;20039;-76
2022/02/23 05:13:29;;;;;;;1.67;0.70;;;;;;;24.47;18.86;97927.03;5056750;28;20029;-76
2022/02/23 05:15:57;;;;;;;1.45;0.60;;;;;;;24.54;19.00;97926.06;5070249;28;20044;-77
2022/02/23 05:18:26;;;;;;;2.80;0.80;;;;;;;24.22;19.54;97938.13;5071283;28;20031;-76
2022/02/23 05:20:53;;;;;;;2.25;0.80;;;;;;;23.79;19.88;97934.69;5071033;28;20501;-76
2022/02/23 05:23:19;;;;;;;2.05;0.70;;;;;;;23.24;20.79;97943.91;5068709;28;20673;-76
2022/02/23 05:25:45;;;;;;;2.42;1.00;;;;;;;23.31;20.64;97944.53;5073555;28;20037;-76
2022/02/23 05:28:12;;;;;;;3.38;1.40;;;;;;;23.59;20.56;97943.19;5067299;28;20389;-77
2022/02/23 05:30:38;;;;;;;5.43;2.40;;;;;;;23.28;21.00;97948.22;5066597;28;20149;-77
2022/02/23 05:33:04;;;;;;;2.45;1.20;;;;;;;23.04;21.43;97952.28;5069417;28;20036;-76
2022/02/23 05:35:31;;;;;;;3.05;1.42;;;;;;;22.58;21.97;97952.34;5067675;28;20058;-76
2022/02/23 05:37:57;;;;;;;7.28;2.15;;;;;;;21.84;22.85;97950.78;5068877;28;20036;-77
2022/02/23 05:40:23;;;;;;;3.28;1.60;;;;;;;22.35;22.06;97949.56;5069152;28;20028;-76
2022/02/23 05:42:50;;;;;;;3.42;1.48;;;;;;;22.95;21.62;97959.69;5067561;28;20032;-77
2022/02/23 05:45:16;;;;;;;3.65;1.50;;;;;;;22.95;21.41;97956.88;5072853;28;20494;-76
2022/02/23 05:47:42;;;;;;;3.28;1.00;;;;;;;22.75;21.82;97965.25;5072661;28;20029;-76
2022/02/23 05:50:09;;;;;;;2.85;1.30;;;;;;;23.02;21.57;97967.94;5070840;28;20040;-76
2022/02/23 05:52:35;;;;;;;3.60;1.23;;;;;;;23.19;20.97;97964.81;5072248;28;20036;-76
2022/02/23 05:55:04;;;;;;;1.98;1.02;;;;;;;23.12;21.40;97969.75;5053219;28;20121;-76
2022/02/23 05:57:31;;;;;;;3.17;1.50;;;;;;;23.38;20.92;97966.81;5053177;28;20028;-76
2022/02/23 05:59:58;;;;;;;6.22;3.13;;;;;;;22.68;21.49;97977.34;5071589;28;20040;-76
2022/02/23 06:02:24;;;;;;;6.00;2.78;;;;;;;22.68;21.47;97974.56;5066161;28;20036;-76
2022/02/23 06:04:50;;;;;;;5.80;3.30;;;;;;;22.98;21.38;97981.22;5052697;28;20067;-76
2022/02/23 06:07:16;;;;;;;4.55;2.50;;;;;;;23.11;21.05;97980.16;5071363;28;20036;-77
2022/02/23 06:09:43;;;;;;;4.95;2.50;;;;;;;22.71;21.49;97988.94;5071671;28;20029;-77
2022/02/23 06:12:09;;;;;;;2.30;1.00;;;;;;;22.64;21.97;97993.44;5051980;28;20054;-76
2022/02/23 06:14:35;;;;;;;3.70;1.85;;;;;;;22.73;21.78;98001.28;5072713;28;20024;-77
2022/02/23 06:17:02;;;;;;;2.97;1.38;;;;;;;22.89;21.59;98003.41;5072177;28;20107;-77
2022/02/23 06:19:28;;;;;;;2.40;1.00;;;;;;;23.32;21.07;97995.75;5072120;28;20527;-76
2022/02/23 06:21:54;;;;;;;4.13;1.40;;;;;;;23.40;20.94;98007.63;5071614;28;20055;-76
2022/02/23 06:24:20;;;;;;;1.52;0.80;;;;;;;23.66;20.63;98018.72;5071984;28;20082;-76
2022/02/23 06:26:46;;;;;;;1.95;0.98;;;;;;;23.75;20.54;98013.31;5070875;28;20036;-76
2022/02/23 06:29:12;;;;;;;3.80;1.13;;;;;;;22.94;21.54;98030.91;5071820;28;20154;-76
2022/02/23 06:31:38;;;;;;;2.28;1.13;;;;;;;23.48;21.11;98037.88;5072614;28;20533;-76
2022/02/23 06:34:04;;;;;;;3.05;1.30;;;;;;;22.58;21.96;98045.47;5071950;28;20063;-76
2022/02/23 06:36:30;;;;;;;2.60;1.00;;;;;;;22.81;21.90;98044.72;5070956;28;20482;-76
2022/02/23 06:38:57;;;;;;;1.02;0.80;;;;;;;22.89;21.83;98051.78;5072998;28;20036;-76
2022/02/23 06:41:24;;;;;;;1.80;1.40;;;;;;;22.23;22.71;98048.03;5073039;28;20474;-76
2022/02/23 06:43:51;;;;;;;2.28;1.38;;;;;;;22.14;22.97;98061.75;5072802;28;20037;-76
2022/02/23 06:46:19;;;;;;;2.47;1.40;;;;;;;22.03;23.24;98061.94;5070469;28;20084;-76
2022/02/23 06:48:46;;;;;;;2.58;1.33;;;;;;;22.84;22.10;98065.47;5061319;28;20040;-76
2022/02/23 06:51:18;;;;;;;2.00;1.00;;;;;;;22.71;22.27;98072.91;5070791;28;20072;-76
2022/02/23 06:53:45;;;;;;;2.33;1.33;;;;;;;22.72;22.23;98080.06;5071203;28;20055;-76
2022/02/23 06:56:12;;;;;;;3.85;2.08;;;;;;;22.40;22.73;98072.97;5071590;28;20394;-76
2022/02/23 06:58:51;;;;;;;3.08;2.00;;;;;;;22.58;22.81;98092.25;5072845;28;20489;-76
2022/02/23 07:01:19;;;;;;;2.10;1.40;;;;;;;21.62;24.34;98100.34;5045801;28;20383;-76
2022/02/23 07:03:48;;;;;;;2.22;1.23;;;;;;;21.05;24.70;98106.50;5087844;28;20028;-76
2022/02/23 07:06:15;;;;;;;3.05;1.23;;;;;;;20.15;25.85;98105.94;5072558;28;20048;-76
2022/02/23 07:08:49;;;;;;;2.97;1.85;;;;;;;19.76;26.81;98115.31;5071923;28;20482;-76
2022/02/23 07:11:16;;;;;;;2.80;1.33;;;;;;;19.75;27.06;98112.91;5073102;28;20493;-76
2022/02/23 07:13:45;;;;;;;4.40;1.48;;;;;;;19.22;27.93;98110.25;5063315;28;20037;-76
2022/02/23 07:16:12;;;;;;;3.65;1.70;;;;;;;19.45;27.89;98126.53;5053192;28;20031;-76
2022/02/23 07:18:40;;;;;;;6.63;1.70;;;;;;;19.14;28.15;98122.59;5071563;28;20029;-76
2022/02/23 07:21:06;;;;;;;5.53;1.92;;;;;;;18.77;28.54;98145.25;5067809;28;20047;-76
2022/02/23 07:23:32;;;;;;;6.05;1.80;;;;;;;18.94;28.54;98138.13;5072245;28;20058;-76
2022/02/23 07:25:58;;;;;;;4.25;2.17;;;;;;;20.15;26.67;98133.81;5071991;28;20032;-76
2022/02/23 07:28:24;;;;;;;3.03;1.75;;;;;;;19.77;27.37;98146.72;5072622;28;20028;-76
2022/02/23 07:30:51;;;;;;;6.30;1.80;;;;;;;19.21;28.02;98156.78;5072803;28;20029;-76
2022/02/23 07:33:18;;;;;;;6.18;2.80;;;;;;;18.29;29.53;98158.69;5071347;28;20078;-76
2022/02/23 07:35:45;;;;;;;7.72;1.83;;;;;;;19.42;27.84;98172.69;5062884;28;20028;-76
2022/02/23 07:38:11;;;;;;;5.65;2.05;;;;;;;19.04;27.77;98174.28;5075440;28;20028;-76
2022/02/23 07:40:37;;;;;;;5.80;1.88;;;;;;;19.14;27.98;98181.03;5075153;28;20032;-76
2022/02/23 07:43:06;;;;;;;5.18;2.25;;;;;;;19.85;27.10;98182.53;5075924;28;20068;-77
2022/02/23 07:45:33;;;;;;;6.05;1.95;;;;;;;19.80;27.45;98191.28;5075798;28;20027;-76
2022/02/23 07:48:01;;;;;;;4.88;1.95;;;;;;;19.29;27.18;98188.19;5058198;28;20399;-76
2022/02/23 07:50:28;;;;;;;3.45;1.60;;;;;;;18.75;28.47;98197.72;5075624;28;20037;-76
2022/02/23 07:52:54;;;;;;;7.70;2.58;;;;;;;18.11;29.70;98218.16;5091261;28;20367;-76
2022/02/23 07:55:22;;;;;;;9.00;2.60;;;;;;;17.79;30.28;98198.56;5074661;28;20489;-76
2022/02/23 07:57:48;;;;;;;6.60;2.20;;;;;;;17.96;30.17;98206.19;5075696;28;20032;-76
2022/02/23 08:00:18;;;;;;;8.73;2.22;;;;;;;19.35;28.14;98219.22;5075665;28;20032;-76
2022/02/23 08:02:44;;;;;;;7.80;2.03;;;;;;;19.38;27.89;98224.00;5075453;28;20125;-76
2022/02/23 08:05:10;;;;;;;6.13;2.45;;;;;;;18.55;28.43;98175.03;5075261;28;20037;-76
2022/02/23 08:07:36;;;;;;;9.10;2.88;;;;;;;18.16;29.38;98235.25;5075416;28;20044;-76
2022/02/23 08:10:03;;;;;;;12.85;3.95;;;;;;;17.81;30.01;98246.97;5087253;28;20101;-77
2022/02/23 08:12:29;;;;;;;5.78;2.60;;;;;;;18.10;29.78;98245.16;5070498;28;20028;-77
2022/02/23 08:14:56;;;;;;;11.43;2.90;;;;;;;18.25;29.31;98255.13;5075768;28;20386;-76
2022/02/23 08:20:08;;;;;;;8.73;2.00;;;;;;;17.40;30.13;98269.66;5075948;28;20102;-76
2022/02/23 08:22:35;;;;;;;9.43;2.30;;;;;;;17.77;30.01;98273.13;5073108;28;20059;-76
2022/02/23 08:25:02;;;;;;;10.88;3.30;;;;;;;17.60;29.57;98232.94;5074824;28;20111;-76
2022/02/23 08:27:30;;;;;;;8.15;2.70;;;;;;;17.51;30.15;98285.25;5074945;28;20052;-75
2022/02/23 08:29:56;;;;;;;6.28;1.90;;;;;;;18.00;29.29;98267.31;5074680;28;20449;-75
2022/02/23 08:32:23;;;;;;;12.52;3.03;;;;;;;18.16;28.24;98278.91;5068908;28;20036;-76
2022/02/23 08:34:51;;;;;;;9.70;2.20;;;;;;;16.59;30.28;98291.88;5074137;28;20036;-76
2022/02/23 08:37:19;;;;;;;6.63;1.80;;;;;;;17.01;30.22;98306.16;5075169;28;20044;-76
2022/02/23 08:39:48;;;;;;;6.40;1.85;;;;;;;16.36;30.94;98316.09;5074481;28;20036;-76
2022/02/23 08:42:16;;;;;;;6.80;1.75;;;;;;;15.70;31.71;98345.22;5074864;28;20493;-76
2022/02/23 08:44:42;;;;;;;8.02;1.80;;;;;;;17.32;29.81;98321.53;5073549;28;20052;-76
2022/02/23 08:47:09;;;;;;;6.78;1.63;;;;;;;18.36;27.51;98322.69;5073928;28;20056;-75
2022/02/23 08:49:35;;;;;;;7.03;1.83;;;;;;;18.44;28.00;98324.31;5073758;28;20029;-76
2022/02/23 08:52:01;;;;;;;7.68;1.73;;;;;;;18.73;27.14;98346.69;5074783;28;20470;-76
2022/02/23 08:54:28;;;;;;;7.55;2.10;;;;;;;18.62;27.63;98353.00;5074951;28;20024;-76
2022/02/23 08:56:55;;;;;;;6.32;1.80;;;;;;;18.78;26.87;98340.75;5074714;28;20036;-75
2022/02/23 08:59:21;;;;;;;10.90;1.75;;;;;;;18.33;27.87;98317.91;5074541;28;20040;-76
2022/02/23 09:01:47;;;;;;;4.90;1.50;;;;;;;18.22;27.78;98347.63;5073994;28;20082;-76
2022/02/23 09:04:13;;;;;;;7.65;1.88;;;;;;;19.01;26.83;98350.38;5037512;28;20021;-76
2022/02/23 09:06:40;;;;;;;11.02;2.40;;;;;;;18.37;27.92;98345.72;5063467;28;20615;-76
2022/02/23 09:09:10;;;;;;;8.10;1.95;;;;;;;18.33;27.43;98342.13;5055927;28;20474;-76
2022/02/23 09:11:37;;;;;;;9.50;1.47;;;;;;;18.13;28.32;98347.19;5059881;28;20115;-76
2022/02/23 09:14:04;;;;;;;10.38;1.70;;;;;;;18.93;26.89;98353.53;5054176;28;20033;-76
2022/02/23 09:16:31;;;;;;;6.53;1.45;;;;;;;17.72;28.82;98374.25;5060690;28;20158;-76
2022/02/23 09:18:57;;;;;;;6.13;1.80;;;;;;;18.54;27.23;98367.28;5073794;28;20068;-76
2022/02/23 09:21:23;;;;;;;17.00;3.05;;;;;;;18.87;26.69;98369.00;5074122;28;20032;-76
2022/02/23 09:23:49;;;;;;;9.38;1.90;;;;;;;18.27;27.94;98372.28;5074015;28;20085;-76
2022/02/23 09:26:18;;;;;;;9.90;2.05;;;;;;;16.75;29.86;98400.56;5066043;28;20032;-76
2022/02/23 09:28:44;;;;;;;8.50;2.17;;;;;;;17.10;29.80;98381.56;5066414;28;20045;-76
2022/02/23 09:31:12;;;;;;;4.35;1.02;;;;;;;16.98;29.83;98383.81;5073176;28;20424;-76
2022/02/23 09:33:38;;;;;;;3.45;0.90;;;;;;;17.08;30.26;98400.53;5073749;28;20024;-76
2022/02/23 09:36:04;;;;;;;3.30;0.90;;;;;;;17.52;29.23;98406.22;5073271;28;20032;-76
2022/02/23 09:38:32;;;;;;;2.47;1.02;;;;;;;17.60;28.48;98388.44;5073496;28;20056;-76
2022/02/23 09:41:00;;;;;;;4.47;1.38;;;;;;;18.14;28.36;98401.56;5073581;28;20029;-76
2022/02/23 09:43:27;;;;;;;2.80;0.73;;;;;;;17.49;30.36;98420.00;5089084;28;20063;-76
2022/02/23 09:45:54;;;;;;;5.32;1.15;;;;;;;17.84;29.81;98425.94;5072820;28;20104;-76
2022/02/23 09:48:27;;;;;;;7.32;1.10;;;;;;;16.72;31.21;98423.50;5055720;28;20031;-76
2022/02/23 09:50:53;;;;;;;2.70;0.75;;;;;;;17.96;30.08;98422.84;5073356;28;20033;-76
2022/02/23 09:53:21;;;;;;;6.05;1.08;;;;;;;18.47;28.92;98420.88;5072702;28;20028;-76
2022/02/23 09:55:47;;;;;;;3.33;1.08;;;;;;;19.28;28.29;98412.06;5072940;28;20449;-76
2022/02/23 09:58:14;;;;;;;5.50;1.10;;;;;;;19.31;28.20;98414.88;5072896;28;20032;-76
2022/02/23 10:00:41;;;;;;;3.15;0.90;;;;;;;20.18;27.04;98418.16;5055311;28;20036;-76
2022/02/23 10:03:09;;;;;;;4.68;1.10;;;;;;;19.64;28.78;98419.34;5073467;28;20485;-76
2022/02/23 10:05:41;;;;;;;5.47;1.20;;;;;;;21.64;25.48;98405.28;5073342;28;20036;-76
2022/02/23 10:08:12;;;;;;;10.13;2.03;;;;;;;21.74;25.23;98401.63;5051795;28;20566;-76
2022/02/23 10:10:41;;;;;;;8.48;1.50;;;;;;;22.34;24.68;98410.31;5068832;28;20043;-76
2022/02/23 10:13:08;;;;;;;7.50;1.58;;;;;;;22.16;24.17;98403.31;5072409;28;20035;-76
2022/02/23 10:15:42;;;;;;;7.63;1.70;;;;;;;22.28;23.80;98405.59;5054811;28;20037;-76
2022/02/23 10:18:20;;;;;;;5.78;1.65;;;;;;;21.98;23.73;98412.63;5072760;28;20036;-76
2022/02/23 10:20:48;;;;;;;8.30;1.95;;;;;;;21.19;23.95;98419.09;5054472;28;20397;-76
2022/02/23 10:23:20;;;;;;;6.13;1.80;;;;;;;20.73;25.22;98404.53;5073047;28;20390;-75
2022/02/23 10:25:58;;;;;;;5.72;1.40;;;;;;;19.82;25.95;98411.00;5072709;28;20025;-76
2022/02/23 10:28:29;;;;;;;6.22;1.20;;;;;;;20.27;25.15;98415.78;5068291;28;20152;-76
2022/02/23 10:31:01;;;;;;;11.40;2.03;;;;;;;21.02;23.74;98431.16;5072569;28;20133;-76
2022/02/23 10:33:38;;;;;;;10.00;2.22;;;;;;;19.15;26.36;98425.56;5072936;28;20048;-76
2022/02/23 10:36:07;;;;;;;5.63;1.10;;;;;;;20.47;24.46;98416.13;5065054;28;20029;-76
2022/02/23 10:38:39;;;;;;;4.70;1.35;;;;;;;20.35;23.43;98411.00;5072057;28;20025;-76
2022/02/23 10:41:15;;;;;;;6.13;1.33;;;;;;;18.90;26.12;98430.25;5072893;28;20024;-76
2022/02/23 10:55:58;;;;;;;4.22;1.50;;;;;;;19.59;24.95;98428.09;5027696;28;20923;-76
2022/02/23 10:58:26;;;;;;;9.48;1.58;;;;;;;17.87;27.32;98453.75;5022797;28;20445;-75
2022/02/23 11:01:03;;;;;;;7.50;1.55;;;;;;;17.17;28.52;98453.78;5012337;28;20087;-75
2022/02/23 11:03:29;;;;;;;6.90;1.45;;;;;;;17.40;28.38;98450.06;5020484;28;20121;-76
2022/02/23 11:05:55;;;;;;;6.53;1.40;;;;;;;17.20;28.18;98416.94;5083151;28;20037;-75
2022/02/23 11:08:21;;;;;;;11.00;1.63;;;;;;;17.57;27.94;98443.94;5026779;28;20117;-77
2022/02/23 11:10:49;;;;;;;7.85;1.30;;;;;;;18.59;25.82;98440.00;5027236;28;20041;-75
2022/02/23 11:13:16;;;;;;;7.40;1.20;;;;;;;20.31;23.81;98438.09;5026778;28;20026;-76
2022/02/23 11:15:47;;;;;;;8.90;1.35;;;;;;;19.65;23.89;98434.06;5024982;28;20520;-76
2022/02/23 11:18:16;;;;;;;7.22;1.25;;;;;;;18.90;25.07;98435.81;5025198;28;20690;-76
2022/02/23 11:20:44;;;;;;;8.60;1.50;;;;;;;18.81;25.04;98434.56;5021529;28;20026;-76
2022/02/23 11:23:18;;;;;;;9.07;1.70;;;;;;;19.56;23.91;98442.78;5006863;28;20525;-77
2022/02/23 11:25:47;;;;;;;9.32;1.73;;;;;;;19.62;24.37;98457.94;5008493;28;20030;-76
2022/02/23 11:28:33;;;;;;;8.50;1.80;;;;;;;18.60;25.43;98449.94;5006998;28;20037;-75
2022/02/23 11:31:11;;;;;;;9.57;1.40;;;;;;;17.97;26.52;98468.88;5006912;28;20091;-76
2022/02/23 11:33:55;;;;;;;4.72;0.98;;;;;;;16.90;27.83;98460.56;5023506;28;20038;-76
2022/02/23 11:36:29;;;;;;;6.20;1.20;;;;;;;17.49;27.77;98475.53;5014601;28;20027;-76
2022/02/23 11:38:57;;;;;;;6.38;1.63;;;;;;;17.19;27.84;98470.84;5109057;27;20038;-76
2022/02/23 11:41:27;;;;;;;7.68;1.70;;;;;;;16.97;28.77;98455.09;5006941;28;20030;-76
2022/02/23 11:44:17;;;;;;;6.65;1.35;;;;;;;18.61;26.46;98445.19;5006167;28;20072;-76
2022/02/23 11:47:09;;;;;;;3.55;1.20;;;;;;;19.22;25.84;98441.50;4993459;28;20047;-76
2022/02/23 11:49:36;;;;;;;7.00;1.52;;;;;;;19.56;25.39;98453.94;4987129;28;20117;-76